Time;durP1;ratioP1;P1;durP2;ratioP2;P2;SDS_P1;SDS_P2;PMS_P1;PMS_P2;Temp;Humidity;BMP_temperature;BMP_pressure;BME280_temperature;BME280_humidity;BME280_pressure;Samples;Min_cycle;Max_cycle;Signal;HPM_P1;HPM_P2
2022/09/23 00:01:22;;;;;;;10.00;4.07;;;;;;;15.36;56.46;101720.13;5114848;28;20063;-69
2022/09/23 00:03:50;;;;;;;6.18;3.80;;;;;;;15.35;56.22;101717.66;5128766;27;20446;-69
2022/09/23 00:06:20;;;;;;;6.55;4.13;;;;;;;15.35;56.35;101712.25;5127574;27;20059;-69
2022/09/23 00:08:49;;;;;;;5.45;3.60;;;;;;;15.33;56.38;101715.19;5126880;27;20052;-69
2022/09/23 00:11:20;;;;;;;6.13;4.25;;;;;;;15.33;56.51;101719.78;5132585;27;20044;-69
2022/09/23 00:13:49;;;;;;;5.97;3.58;;;;;;;15.31;56.18;101714.59;5117991;27;20044;-69
2022/09/23 00:16:19;;;;;;;6.28;3.85;;;;;;;15.30;56.24;101713.75;5125100;28;20043;-69
2022/09/23 00:18:48;;;;;;;6.70;3.50;;;;;;;15.20;56.48;101696.44;5122540;27;20043;-69
2022/09/23 00:40:12;;;;;;;5.22;3.78;;;;;;;15.16;56.18;101690.66;5126340;27;20101;-69
2022/09/23 00:42:46;;;;;;;7.38;3.97;;;;;;;15.16;56.51;101687.94;5127578;27;20062;-69
2022/09/23 00:45:14;;;;;;;8.25;3.92;;;;;;;15.14;56.40;101697.34;5132778;27;20047;-69
2022/09/23 00:47:46;;;;;;;7.13;3.58;;;;;;;15.13;56.26;101690.28;5119341;27;20047;-69
2022/09/23 00:50:22;;;;;;;5.97;3.90;;;;;;;15.12;56.28;101684.03;5122573;28;20051;-69
2022/09/23 00:52:52;;;;;;;6.25;4.10;;;;;;;15.11;56.15;101692.41;5125976;27;20522;-70
2022/09/23 00:55:25;;;;;;;7.38;4.10;;;;;;;15.11;56.36;101687.00;5121583;27;20054;-69
2022/09/23 00:57:55;;;;;;;6.28;3.67;;;;;;;15.09;56.34;101681.81;5138729;27;20048;-69
2022/09/23 01:00:23;;;;;;;5.43;3.60;;;;;;;15.07;56.28;101680.38;5124217;28;20044;-69
2022/09/23 01:02:51;;;;;;;4.97;3.70;;;;;;;15.07;56.32;101678.50;5114017;27;20126;-69
2022/09/23 01:05:20;;;;;;;7.28;4.40;;;;;;;15.05;56.20;101683.31;5122292;28;20043;-69
2022/09/23 01:07:48;;;;;;;6.47;4.05;;;;;;;15.04;56.33;101678.97;5119337;27;20067;-70
2022/09/23 01:10:17;;;;;;;7.88;4.03;;;;;;;15.03;56.17;101679.19;5107889;28;20607;-70
2022/09/23 01:13:08;;;;;;;6.90;3.97;;;;;;;15.01;56.07;101673.19;5115234;28;20127;-70
2022/09/23 01:15:43;;;;;;;8.68;4.45;;;;;;;15.00;56.16;101672.34;5122188;27;20058;-70
2022/09/23 01:18:26;;;;;;;8.13;3.72;;;;;;;15.00;55.98;101671.53;5114906;27;20520;-70
2022/09/23 01:21:09;;;;;;;5.28;3.75;;;;;;;14.97;56.13;101672.81;5116320;28;20552;-70
2022/09/23 01:24:06;;;;;;;4.28;3.35;;;;;;;14.97;56.05;101670.13;5127277;27;20048;-70
2022/09/23 01:26:47;;;;;;;;;;;;;;;14.97;56.12;101675.53;5130621;27;20047;-70
2022/09/23 01:29:39;;;;;;;5.20;3.72;;;;;;;14.95;56.24;101677.63;5121950;27;19920;-70
2022/09/23 01:32:14;;;;;;;8.13;4.50;;;;;;;14.93;55.97;101672.47;5113726;27;20050;-70
2022/09/23 01:34:50;;;;;;;5.50;4.33;;;;;;;14.94;56.14;101665.16;5119834;27;20052;-70
2022/09/23 01:37:27;;;;;;;7.20;3.83;;;;;;;14.93;55.84;101669.75;5121618;27;20309;-70
2022/09/23 01:40:03;;;;;;;5.65;4.00;;;;;;;14.92;56.13;101672.69;5129881;27;20052;-70
2022/09/23 01:42:39;;;;;;;6.88;4.88;;;;;;;14.83;56.17;101657.81;5117472;27;20134;-70
2022/09/23 01:45:14;;;;;;;11.55;3.70;;;;;;;14.90;56.05;101669.38;5124223;28;20240;-70
2022/09/23 01:47:50;;;;;;;5.28;3.53;;;;;;;14.88;55.94;101668.78;5122013;27;20051;-70
2022/09/23 01:53:14;;;;;;;7.20;3.95;;;;;;;14.85;56.09;101667.38;5120536;27;20054;-70
2022/09/23 01:55:48;;;;;;;6.00;3.50;;;;;;;14.84;56.02;101660.31;5122482;28;20051;-70
2022/09/23 01:58:24;;;;;;;9.25;4.38;;;;;;;14.84;55.94;101668.41;5123029;28;20048;-70
2022/09/23 02:00:57;;;;;;;5.88;3.70;;;;;;;14.84;56.20;101662.19;5108223;28;20148;-70
2022/09/23 02:03:32;;;;;;;6.63;4.00;;;;;;;14.82;55.96;101665.13;5120774;27;20058;-70
2022/09/23 02:06:04;;;;;;;7.20;4.38;;;;;;;14.81;55.96;101658.06;5122367;27;20063;-70
2022/09/23 02:08:35;;;;;;;6.88;3.95;;;;;;;14.80;56.23;101661.00;5122437;27;20136;-70
2022/09/23 02:11:08;;;;;;;4.28;3.63;;;;;;;14.78;56.26;101649.56;5123564;27;20062;-70
2022/09/23 02:13:43;;;;;;;7.40;3.90;;;;;;;14.76;55.89;101651.69;5126049;27;20043;-70
2022/09/23 02:16:20;;;;;;;9.15;4.15;;;;;;;14.76;55.97;101662.50;5119559;27;20052;-70
2022/09/23 02:18:55;;;;;;;6.18;3.92;;;;;;;14.75;56.22;101658.16;5130182;27;20047;-70
2022/09/23 02:21:27;;;;;;;5.35;3.72;;;;;;;14.75;56.13;101655.44;5114816;27;20361;-69
2022/09/23 02:24:04;;;;;;;6.43;3.90;;;;;;;14.72;56.21;101651.31;5121712;27;20407;-69
2022/09/23 02:26:38;;;;;;;6.35;3.75;;;;;;;14.71;56.03;101649.66;5111411;28;20138;-70
2022/09/23 02:29:16;;;;;;;7.30;3.85;;;;;;;14.70;55.72;101639.91;5119297;28;20056;-70
2022/09/23 02:31:52;;;;;;;5.30;3.30;;;;;;;14.70;56.26;101636.38;5121038;28;20058;-70
2022/09/23 02:34:30;;;;;;;7.45;4.15;;;;;;;14.68;55.94;101644.72;5127015;27;20046;-70
2022/09/23 02:37:07;;;;;;;6.82;4.07;;;;;;;14.66;55.99;101630.59;5126413;27;20044;-70
2022/09/23 02:39:43;;;;;;;6.68;4.82;;;;;;;14.66;56.34;101633.28;5122786;28;20043;-69
2022/09/23 02:42:16;;;;;;;6.78;3.97;;;;;;;14.56;55.89;101609.50;5123264;28;20048;-70
2022/09/23 02:44:44;;;;;;;7.50;3.78;;;;;;;14.64;56.36;101624.59;5122798;28;20138;-70
2022/09/23 02:47:12;;;;;;;5.72;3.70;;;;;;;14.62;56.29;101619.41;5106696;28;20060;-70
2022/09/23 02:49:41;;;;;;;4.85;3.40;;;;;;;14.62;55.96;101613.16;5118116;28;20047;-70
2022/09/23 02:52:10;;;;;;;8.38;3.70;;;;;;;14.61;55.85;101608.81;5131348;28;20050;-70
2022/09/23 02:54:39;;;;;;;5.93;3.47;;;;;;;14.58;56.15;101609.28;5120725;28;20040;-70
2022/09/23 02:57:08;;;;;;;6.32;4.00;;;;;;;14.59;55.80;101617.16;5134914;28;20067;-69
2022/09/23 02:59:37;;;;;;;8.23;3.92;;;;;;;14.49;55.76;101597.13;5125036;28;20061;-69
2022/09/23 03:02:28;;;;;;;6.70;3.70;;;;;;;14.57;55.82;101610.31;5123300;28;20050;-69
2022/09/23 03:05:06;;;;;;;6.85;3.22;;;;;;;14.55;56.22;101609.72;5116783;28;20044;-70
2022/09/23 03:07:46;;;;;;;5.55;3.75;;;;;;;14.54;55.85;101608.91;5124951;28;20051;-70
2022/09/23 03:10:22;;;;;;;6.10;3.55;;;;;;;14.39;55.50;101583.28;5112890;27;20054;-70
2022/09/23 03:13:00;;;;;;;8.07;3.60;;;;;;;14.52;55.92;101602.06;5125388;27;20503;-70
2022/09/23 03:15:36;;;;;;;6.65;4.10;;;;;;;14.51;55.67;101601.25;5124987;28;20054;-70
2022/09/23 03:18:13;;;;;;;5.85;3.72;;;;;;;14.50;55.86;101598.78;5125245;27;20047;-70
2022/09/23 03:20:45;;;;;;;;;;;;;;;14.49;55.76;101597.13;5126951;28;20043;-70
2022/09/23 03:23:17;;;;;;;7.15;3.67;;;;;;;14.46;55.89;101593.00;5125891;27;19920;-70
2022/09/23 03:25:48;;;;;;;6.70;3.90;;;;;;;14.46;55.52;101590.28;5112368;27;20055;-70
2022/09/23 03:28:19;;;;;;;7.22;3.95;;;;;;;14.45;55.43;101588.63;5136813;27;20063;-70
2022/09/23 03:30:47;;;;;;;9.10;4.07;;;;;;;14.45;55.57;101591.34;5127839;28;20052;-70
2022/09/23 03:33:18;;;;;;;5.85;3.72;;;;;;;14.44;55.46;101594.28;5122351;27;20047;-70
2022/09/23 03:38:44;;;;;;;8.68;4.82;;;;;;;14.42;55.79;101594.50;5125659;27;20062;-70
2022/09/23 03:41:18;;;;;;;6.53;3.58;;;;;;;14.43;55.60;101587.22;5126555;27;20055;-70
2022/09/23 03:43:46;;;;;;;6.97;4.32;;;;;;;14.41;55.45;101587.41;5124130;27;20047;-70
2022/09/23 03:46:15;;;;;;;6.25;3.92;;;;;;;14.40;55.33;101587.66;5120478;27;20071;-70
2022/09/23 03:48:44;;;;;;;8.65;4.00;;;;;;;14.39;55.36;101594.94;5127865;28;20462;-70
2022/09/23 03:51:22;;;;;;;6.72;3.80;;;;;;;14.38;55.84;101587.06;5117976;28;20056;-70
2022/09/23 03:53:50;;;;;;;4.85;3.45;;;;;;;14.37;55.30;101585.41;5124035;27;20044;-70
2022/09/23 03:56:18;;;;;;;6.53;3.92;;;;;;;14.36;55.73;101591.84;5124855;27;20091;-70
2022/09/23 03:58:45;;;;;;;5.57;3.70;;;;;;;14.33;55.83;101585.84;5117949;27;20048;-70
2022/09/23 04:01:14;;;;;;;5.25;3.65;;;;;;;14.33;55.59;101587.72;5125498;28;20050;-70
2022/09/23 04:03:42;;;;;;;5.20;3.70;;;;;;;14.31;55.74;101577.16;5125442;27;20429;-70
2022/09/23 04:06:10;;;;;;;7.57;3.53;;;;;;;14.31;55.63;101587.13;5120974;28;20135;-70
2022/09/23 04:08:39;;;;;;;9.75;3.63;;;;;;;14.30;55.75;101583.59;5122825;27;20488;-70
2022/09/23 04:11:07;;;;;;;6.03;3.13;;;;;;;14.29;55.51;101571.13;5125259;28;20051;-70
2022/09/23 04:13:34;;;;;;;6.13;3.42;;;;;;;14.28;55.41;101569.50;5134769;27;20044;-70
2022/09/23 04:16:02;;;;;;;5.30;3.38;;;;;;;14.27;55.42;101569.72;5127549;28;20107;-70
2022/09/23 04:18:31;;;;;;;7.20;3.70;;;;;;;14.25;55.24;101577.22;5110231;27;20052;-70
2022/09/23 04:20:59;;;;;;;7.88;4.05;;;;;;;14.24;55.47;101578.28;5124187;28;20119;-70
2022/09/23 04:23:27;;;;;;;5.13;3.30;;;;;;;14.23;55.46;101582.88;5124872;27;20055;-70
2022/09/23 04:25:57;;;;;;;5.25;3.38;;;;;;;14.19;55.64;101581.69;5124202;27;20446;-70
2022/09/23 04:28:24;;;;;;;5.85;3.72;;;;;;;14.20;55.62;101590.59;5110799;27;20039;-70
2022/09/23 04:30:53;;;;;;;7.97;4.10;;;;;;;14.18;55.48;101580.03;5121348;27;20048;-70
2022/09/23 04:33:21;;;;;;;5.25;3.70;;;;;;;14.17;55.34;101572.97;5127541;27;20359;-70
2022/09/23 04:35:50;;;;;;;7.68;4.18;;;;;;;14.08;55.43;101560.00;5128917;27;20043;-70
2022/09/23 04:38:19;;;;;;;7.30;3.45;;;;;;;14.15;55.67;101571.53;5116357;27;20040;-70
2022/09/23 04:40:46;;;;;;;7.13;4.00;;;;;;;14.14;55.53;101570.72;5118826;28;20051;-70
2022/09/23 04:43:16;;;;;;;7.10;4.03;;;;;;;14.13;55.68;101568.25;5130533;27;20485;-70
2022/09/23 04:45:44;;;;;;;4.82;2.95;;;;;;;14.11;55.64;101573.88;5126106;27;20053;-70
2022/09/23 04:48:12;;;;;;;6.10;3.90;;;;;;;14.11;55.44;101571.19;5120335;27;20050;-70
2022/09/23 04:50:41;;;;;;;6.03;3.40;;;;;;;14.09;55.74;101565.16;5130717;27;20047;-70
2022/09/23 04:53:09;;;;;;;5.90;3.67;;;;;;;14.11;55.63;101567.66;5127851;27;20062;-70
2022/09/23 04:55:36;;;;;;;5.57;3.60;;;;;;;14.09;55.42;101569.75;5127987;27;20043;-70
2022/09/23 04:58:04;;;;;;;5.13;3.45;;;;;;;14.08;55.37;101566.22;5126385;27;20050;-68
2022/09/23 05:00:33;;;;;;;6.65;3.47;;;;;;;14.07;55.86;101559.16;5127520;27;20047;-68
2022/09/23 05:03:02;;;;;;;8.85;4.50;;;;;;;14.07;55.41;101561.03;5121733;27;20058;-68
2022/09/23 05:05:31;;;;;;;6.25;4.22;;;;;;;13.96;55.71;101538.31;5120928;28;20374;-69
2022/09/23 05:07:58;;;;;;;9.82;3.60;;;;;;;14.04;55.80;101548.81;5124703;28;20040;-70
2022/09/23 05:10:26;;;;;;;6.35;3.80;;;;;;;14.02;55.88;101557.16;5121006;28;20062;-70
2022/09/23 05:12:54;;;;;;;5.13;3.33;;;;;;;14.02;55.38;101556.31;5125715;28;20082;-70
2022/09/23 05:15:24;;;;;;;5.13;3.40;;;;;;;14.01;55.48;101557.38;5122446;28;20047;-70
2022/09/23 05:17:53;;;;;;;5.72;2.95;;;;;;;14.00;55.87;101553.00;5118657;27;20053;-68
2022/09/23 05:20:20;;;;;;;5.00;2.95;;;;;;;14.00;55.73;101563.81;5115260;27;20044;-70
2022/09/23 05:22:48;;;;;;;5.47;3.50;;;;;;;13.98;55.47;101564.06;5117508;28;20503;-70
2022/09/23 05:25:16;;;;;;;8.75;3.55;;;;;;;13.97;55.53;101565.09;5110747;28;20048;-70
2022/09/23 05:27:44;;;;;;;5.10;3.35;;;;;;;13.95;55.74;101567.22;5117295;28;20048;-70
2022/09/23 05:30:12;;;;;;;8.15;3.30;;;;;;;13.93;55.47;101573.91;5107940;28;20048;-71
2022/09/23 05:32:40;;;;;;;9.48;3.28;;;;;;;13.91;55.82;101570.59;5113304;28;20047;-67
2022/09/23 05:35:10;;;;;;;4.78;3.03;;;;;;;13.90;55.61;101571.63;5124956;27;20055;-69
2022/09/23 05:37:38;;;;;;;5.25;2.83;;;;;;;13.88;56.03;101569.16;5129572;27;20055;-69
2022/09/23 05:40:06;;;;;;;8.57;3.45;;;;;;;13.88;56.09;101577.28;5110100;28;20044;-69
2022/09/23 05:42:34;;;;;;;6.85;3.70;;;;;;;13.89;55.82;101581.63;5119912;27;20056;-70
2022/09/23 05:45:02;;;;;;;5.80;3.17;;;;;;;13.89;56.01;101578.91;5115685;28;20062;-66
2022/09/23 05:47:30;;;;;;;5.70;3.08;;;;;;;13.89;56.08;101578.09;5125334;27;20065;-66
2022/09/23 05:49:58;;;;;;;5.65;2.92;;;;;;;13.86;55.81;101579.41;5124848;27;20062;-67
2022/09/23 05:52:28;;;;;;;5.55;3.10;;;;;;;13.84;55.74;101576.09;5123173;27;20056;-66
2022/09/23 05:54:56;;;;;;;4.72;3.00;;;;;;;13.84;56.17;101575.28;4759068;27;10000291;-66
2022/09/23 05:57:25;;;;;;;5.22;3.05;;;;;;;13.84;56.13;101583.38;5119268;27;20518;-68
2022/09/23 05:59:53;;;;;;;4.00;3.05;;;;;;;13.83;55.75;101585.25;5123932;27;20058;-65
2022/09/23 06:02:20;;;;;;;6.78;3.10;;;;;;;13.85;55.97;101587.75;5118798;27;20046;-70
2022/09/23 06:04:48;;;;;;;6.65;2.78;;;;;;;13.83;56.32;101581.72;5117535;27;20081;-73
2022/09/23 06:07:16;;;;;;;5.95;2.70;;;;;;;13.84;56.33;101577.97;5118968;27;20157;-68
2022/09/23 06:09:45;;;;;;;7.63;3.00;;;;;;;13.84;55.76;101577.97;5119747;28;20051;-74
2022/09/23 06:12:13;;;;;;;6.22;3.45;;;;;;;13.84;56.28;101580.69;5117104;28;20078;-74
2022/09/23 06:14:42;;;;;;;7.75;3.35;;;;;;;13.84;56.00;101586.09;5108351;27;20062;-70
2022/09/23 06:17:10;;;;;;;6.95;2.97;;;;;;;13.82;55.99;101570.09;5131835;27;20051;-72
2022/09/23 06:19:38;;;;;;;6.53;3.47;;;;;;;13.83;56.35;101573.63;5121774;28;20059;-72
2022/09/23 06:22:05;;;;;;;5.05;2.80;;;;;;;13.82;56.21;101569.28;5122275;28;20052;-72
2022/09/23 06:24:33;;;;;;;4.00;2.85;;;;;;;13.81;56.28;101571.16;5125408;28;20062;-72
2022/09/23 06:27:02;;;;;;;4.32;2.53;;;;;;;13.80;56.20;101572.19;5114336;28;20048;-72
2022/09/23 06:29:32;;;;;;;6.97;2.85;;;;;;;13.82;56.41;101563.88;5110645;28;20044;-72
2022/09/23 06:32:00;;;;;;;5.45;2.90;;;;;;;13.79;56.49;101564.31;5121473;28;20059;-72
2022/09/23 06:34:28;;;;;;;6.25;2.83;;;;;;;13.80;55.91;101565.97;5121283;28;20051;-72
2022/09/23 06:36:58;;;;;;;4.93;2.80;;;;;;;13.80;56.47;101568.69;5124335;28;20051;-73
2022/09/23 06:39:35;;;;;;;4.47;2.78;;;;;;;13.80;56.04;101569.50;5112463;28;20059;-74
2022/09/23 06:42:06;;;;;;;5.38;3.22;;;;;;;13.80;56.09;101566.81;5121147;28;20051;-75
2022/09/23 06:44:34;;;;;;;6.47;2.92;;;;;;;13.80;56.46;101571.38;5112873;28;20393;-71
2022/09/23 06:47:02;;;;;;;7.50;2.90;;;;;;;13.80;55.96;101569.50;5124140;28;20123;-76
2022/09/23 06:49:30;;;;;;;4.13;2.60;;;;;;;13.80;56.29;101565.97;5109057;28;20044;-73
2022/09/23 06:51:58;;;;;;;5.00;3.13;;;;;;;13.80;56.26;101566.81;5120036;28;20134;-72
2022/09/23 06:54:27;;;;;;;4.57;2.90;;;;;;;13.80;56.34;101569.50;5121237;28;20099;-72
2022/09/23 06:56:54;;;;;;;4.78;2.72;;;;;;;13.80;56.49;101565.97;5120731;28;20067;-72
2022/09/23 06:59:24;;;;;;;4.68;2.90;;;;;;;13.80;56.60;101569.50;5126566;28;20057;-71
2022/09/23 07:01:51;;;;;;;4.60;2.70;;;;;;;13.80;56.30;101571.38;5127667;28;20047;-71
2022/09/23 07:04:20;;;;;;;7.45;3.08;;;;;;;13.81;56.48;101575.72;5127160;28;20044;-72
2022/09/23 07:06:47;;;;;;;6.75;3.22;;;;;;;13.81;56.58;101578.44;5117475;28;20428;-71
2022/09/23 07:09:15;;;;;;;4.93;2.53;;;;;;;13.81;56.25;101573.84;5116014;28;20051;-72
2022/09/23 07:11:43;;;;;;;4.72;2.65;;;;;;;13.81;56.58;101573.03;5110319;28;20540;-72
2022/09/23 07:14:11;;;;;;;3.42;2.33;;;;;;;13.81;56.55;101573.84;5111333;28;20051;-68
2022/09/23 07:16:40;;;;;;;6.05;2.92;;;;;;;13.82;56.12;101571.97;5109505;28;20054;-70
2022/09/23 07:19:08;;;;;;;4.65;2.58;;;;;;;13.82;56.59;101570.09;5096949;28;20056;-71
2022/09/23 07:21:36;;;;;;;6.40;2.60;;;;;;;13.83;56.50;101566.34;5115787;28;20052;-70
2022/09/23 07:24:04;;;;;;;4.18;2.50;;;;;;;13.84;56.49;101561.78;5109078;28;20074;-70
2022/09/23 07:26:32;;;;;;;5.82;3.28;;;;;;;13.84;56.13;101572.56;5107551;28;20047;-71
2022/09/23 07:29:03;;;;;;;4.13;2.47;;;;;;;13.84;56.04;101572.56;5119454;28;20048;-70
2022/09/23 07:31:33;;;;;;;6.05;2.63;;;;;;;13.83;56.51;101563.66;5116918;28;20132;-70
2022/09/23 07:34:10;;;;;;;3.75;2.30;;;;;;;13.86;55.99;101565.06;5109346;28;20071;-70
2022/09/23 07:36:40;;;;;;;4.80;2.40;;;;;;;13.85;56.07;101568.81;5116457;28;20056;-72
2022/09/23 07:39:09;;;;;;;5.68;2.60;;;;;;;13.88;56.29;101565.63;5115034;28;20040;-71
2022/09/23 07:41:37;;;;;;;4.38;2.60;;;;;;;13.88;56.36;101569.16;5110973;28;20043;-71
2022/09/23 07:44:05;;;;;;;4.40;2.92;;;;;;;13.89;56.49;101561.88;5114334;28;20048;-71
2022/09/23 07:46:35;;;;;;;6.03;2.67;;;;;;;13.90;56.47;101563.53;5115441;28;20040;-71
2022/09/23 07:49:05;;;;;;;6.97;2.60;;;;;;;13.90;56.34;101561.66;5111169;28;20059;-72
2022/09/23 07:51:37;;;;;;;6.40;2.90;;;;;;;13.92;56.51;101567.66;5109492;28;20043;-71
2022/09/23 07:54:07;;;;;;;8.57;2.53;;;;;;;13.91;56.28;101571.41;5118107;28;20054;-72
2022/09/23 07:56:36;;;;;;;3.83;2.53;;;;;;;13.91;56.32;101565.19;5111965;28;20078;-71
2022/09/23 07:59:07;;;;;;;4.22;3.10;;;;;;;13.92;56.48;101575.78;5115362;27;20063;-72
2022/09/23 08:01:37;;;;;;;4.00;2.42;;;;;;;13.92;56.54;101570.38;5111097;28;20154;-70
2022/09/23 08:04:07;;;;;;;3.55;2.05;;;;;;;13.92;56.52;101575.78;5118684;28;20046;-67
2022/09/23 08:06:41;;;;;;;5.72;2.55;;;;;;;13.93;56.21;101573.91;5124783;27;20051;-66
2022/09/23 08:09:09;;;;;;;4.32;2.30;;;;;;;13.93;56.39;101565.78;5111175;28;20052;-66
2022/09/23 08:11:40;;;;;;;4.85;3.13;;;;;;;13.94;56.44;101565.56;5111625;28;20048;-66
2022/09/23 08:14:09;;;;;;;6.57;2.45;;;;;;;13.86;56.58;101555.09;5112205;27;20048;-65
2022/09/23 08:16:37;;;;;;;4.97;2.80;;;;;;;13.96;56.60;101566.16;5119852;28;20054;-66
2022/09/23 08:19:05;;;;;;;5.50;3.35;;;;;;;13.96;56.34;101571.56;5113324;27;20054;-66
2022/09/23 08:21:33;;;;;;;3.33;2.30;;;;;;;13.97;56.95;101573.22;5117186;28;20578;-65
2022/09/23 08:24:02;;;;;;;4.72;2.22;;;;;;;13.99;56.46;101573.00;5115283;27;20069;-65
2022/09/23 08:26:33;;;;;;;3.13;2.10;;;;;;;13.99;56.97;101581.09;5121197;27;20051;-66
2022/09/23 08:29:01;;;;;;;4.43;2.47;;;;;;;13.99;56.67;101578.41;5116753;27;20086;-66
2022/09/23 08:31:28;;;;;;;7.38;3.10;;;;;;;14.01;57.02;101581.69;5127038;27;20040;-66
2022/09/23 08:33:58;;;;;;;4.38;2.53;;;;;;;14.01;57.06;101566.31;5117516;28;20075;-65
2022/09/23 08:36:27;;;;;;;5.57;2.35;;;;;;;14.01;57.05;101576.28;5112311;27;20043;-66
2022/09/23 08:38:56;;;;;;;2.72;1.70;;;;;;;14.00;56.65;101567.34;5121154;27;20512;-67
2022/09/23 08:41:35;;;;;;;5.63;2.38;;;;;;;14.01;57.08;101576.28;5116426;27;20456;-66
2022/09/23 08:44:07;;;;;;;4.10;2.33;;;;;;;14.01;56.96;101579.00;5116359;27;20055;-66
2022/09/23 08:46:39;;;;;;;6.30;2.40;;;;;;;14.01;57.05;101574.41;5114801;28;20035;-66
2022/09/23 08:49:18;;;;;;;4.30;2.95;;;;;;;14.01;56.95;101573.59;5117689;28;20043;-66
2022/09/23 08:51:50;;;;;;;5.00;2.40;;;;;;;14.02;57.33;101584.16;5113912;27;20053;-65
2022/09/23 08:54:18;;;;;;;4.80;2.58;;;;;;;14.02;57.30;101586.88;5118574;28;20057;-65
2022/09/23 08:56:51;;;;;;;6.75;2.45;;;;;;;14.05;57.20;101587.47;5118370;27;20069;-68
2022/09/23 08:59:25;;;;;;;5.57;2.50;;;;;;;14.06;57.17;101589.94;5116759;27;20048;-65
2022/09/23 09:01:57;;;;;;;4.80;2.55;;;;;;;14.06;57.00;101583.72;5114428;28;20044;-65
2022/09/23 09:04:32;;;;;;;4.05;2.40;;;;;;;14.08;57.36;101578.91;5108292;27;20564;-65
2022/09/23 09:07:12;;;;;;;8.90;3.17;;;;;;;14.07;57.05;101577.25;5114363;28;20138;-65
2022/09/23 09:10:05;;;;;;;5.40;2.53;;;;;;;14.08;57.58;101570.81;5111886;28;20634;-65
2022/09/23 09:12:41;;;;;;;4.32;2.55;;;;;;;14.00;57.52;101558.41;5117296;28;20202;-64
2022/09/23 09:15:13;;;;;;;5.50;3.40;;;;;;;14.10;57.52;101568.69;5118324;27;20054;-64
2022/09/23 09:17:50;;;;;;;6.20;2.35;;;;;;;14.11;57.53;101563.06;5117592;27;20061;-65
2022/09/23 09:20:37;;;;;;;7.40;3.30;;;;;;;14.12;57.60;101553.91;5110237;28;20123;-64
2022/09/23 09:23:18;;;;;;;7.40;2.80;;;;;;;14.14;57.73;101551.78;5112848;28;20070;-65
2022/09/23 09:25:49;;;;;;;5.80;3.03;;;;;;;14.17;57.79;101556.75;5108911;27;20050;-65
2022/09/23 09:28:23;;;;;;;3.45;2.38;;;;;;;14.18;57.45;101555.69;5105146;28;20040;-64
2022/09/23 09:30:55;;;;;;;5.15;2.83;;;;;;;14.19;57.86;101551.94;5117178;27;20054;-64
2022/09/23 09:33:29;;;;;;;8.55;2.67;;;;;;;14.23;57.46;101557.72;5106175;28;20105;-64
2022/09/23 09:36:09;;;;;;;5.65;2.20;;;;;;;14.27;57.83;101550.78;5107891;27;20052;-64
2022/09/23 09:38:37;;;;;;;8.48;3.08;;;;;;;14.28;57.83;101541.63;5114830;28;20394;-64
2022/09/23 09:41:14;;;;;;;6.10;2.47;;;;;;;14.32;57.63;101546.34;5126393;27;20055;-64
2022/09/23 09:43:55;;;;;;;7.93;3.00;;;;;;;14.33;57.33;101533.66;5110336;28;20044;-64
2022/09/23 09:46:44;;;;;;;5.15;2.85;;;;;;;14.34;58.03;101529.91;5109888;28;20047;-64
2022/09/23 09:49:22;;;;;;;5.38;2.75;;;;;;;14.36;57.56;101541.31;5118866;27;20047;-64
2022/09/23 09:52:12;;;;;;;4.80;2.40;;;;;;;14.40;57.61;101536.25;5105868;28;20120;-64
2022/09/23 09:54:40;;;;;;;3.92;2.60;;;;;;;14.40;57.93;101539.78;5112547;28;20056;-64
2022/09/23 09:57:18;;;;;;;5.70;2.90;;;;;;;14.43;57.98;101544.78;5115694;28;20066;-63
2022/09/23 09:59:47;;;;;;;3.50;2.13;;;;;;;14.45;57.83;101539.97;5117711;27;20494;-64
2022/09/23 10:02:25;;;;;;;3.42;2.17;;;;;;;14.47;57.63;101532.44;5127830;27;20050;-64
2022/09/23 10:05:00;;;;;;;3.80;2.40;;;;;;;14.48;57.54;101538.66;5119062;27;20063;-63
2022/09/23 10:07:30;;;;;;;6.03;2.53;;;;;;;14.49;57.65;101538.44;5118494;27;20047;-66
2022/09/23 10:10:00;;;;;;;5.70;2.92;;;;;;;14.52;57.72;101539.88;5113981;28;20081;-65
2022/09/23 10:12:45;;;;;;;4.00;2.50;;;;;;;14.48;57.76;101530.56;5110996;27;20048;-69
2022/09/23 10:15:30;;;;;;;6.75;2.60;;;;;;;14.57;58.13;101534.59;5118013;27;20043;-66
2022/09/23 10:18:00;;;;;;;4.30;2.30;;;;;;;14.59;58.25;101536.00;5123506;27;20104;-67
2022/09/23 10:20:35;;;;;;;3.67;2.30;;;;;;;14.62;58.40;101529.31;5111900;28;20092;-67
2022/09/23 10:23:07;;;;;;;7.10;2.80;;;;;;;14.63;58.40;101522.84;5114488;28;20381;-66
2022/09/23 10:25:36;;;;;;;3.75;2.15;;;;;;;14.65;58.65;101518.84;5106589;28;20043;-66
2022/09/23 10:28:40;;;;;;;5.50;2.53;;;;;;;14.64;58.22;101528.00;5104264;28;20044;-66
2022/09/23 10:31:12;;;;;;;4.43;2.05;;;;;;;14.68;58.32;101522.13;5111790;27;20048;-66
2022/09/23 10:33:42;;;;;;;3.75;2.20;;;;;;;14.72;58.42;101520.63;5108568;27;20063;-66
2022/09/23 10:36:11;;;;;;;4.15;2.22;;;;;;;14.74;58.86;101532.84;5121376;27;20072;-65
2022/09/23 10:38:39;;;;;;;4.35;2.28;;;;;;;14.75;58.39;101529.09;5112758;27;20043;-66
2022/09/23 10:47:19;;;;;;;5.28;2.35;;;;;;;14.84;58.79;101525.00;5106762;28;20115;-62
2022/09/23 10:50:03;;;;;;;12.45;2.38;;;;;;;14.89;59.08;101527.00;5111831;28;20053;-62
2022/09/23 10:52:44;;;;;;;3.65;2.40;;;;;;;14.93;58.95;101528.19;5107052;28;20061;-62
2022/09/23 10:55:26;;;;;;;6.40;2.20;;;;;;;14.95;59.19;101524.19;5113381;28;20052;-62
2022/09/23 10:58:22;;;;;;;5.18;2.20;;;;;;;14.95;58.79;101526.06;5112046;28;20059;-62
2022/09/23 11:01:05;;;;;;;5.32;2.47;;;;;;;14.96;58.96;101523.13;5110904;28;20552;-62
2022/09/23 11:04:03;;;;;;;3.58;2.30;;;;;;;14.99;58.86;101516.41;5105780;28;20081;-62
2022/09/23 11:06:44;;;;;;;4.97;1.95;;;;;;;15.03;59.16;101516.78;5113313;28;20079;-62
2022/09/23 11:09:30;;;;;;;5.07;2.65;;;;;;;15.03;59.04;101517.59;5103898;28;20040;-61
2022/09/23 11:12:12;;;;;;;4.03;2.25;;;;;;;15.05;58.94;101518.19;5106676;28;20400;-62
2022/09/23 11:14:58;;;;;;;6.15;2.25;;;;;;;15.07;59.10;101515.25;5116976;28;20052;-62
2022/09/23 11:17:55;;;;;;;6.90;2.33;;;;;;;15.09;58.91;101513.13;5107879;28;20060;-62
2022/09/23 11:20:36;;;;;;;4.72;2.47;;;;;;;15.13;59.34;101503.47;5108778;28;20462;-62
2022/09/23 11:23:33;;;;;;;4.07;2.10;;;;;;;15.17;59.40;101508.19;5111071;28;20056;-62
2022/09/23 11:26:13;;;;;;;4.68;1.73;;;;;;;15.18;59.19;101506.28;5100674;28;20059;-62
2022/09/23 11:29:03;;;;;;;5.47;2.10;;;;;;;15.22;59.22;101504.75;5112699;28;20063;-62
2022/09/23 11:31:39;;;;;;;4.30;2.08;;;;;;;15.24;59.07;101497.22;5115354;27;20056;-62
2022/09/23 11:34:24;;;;;;;4.90;2.28;;;;;;;15.27;59.09;101503.00;5124345;27;20368;-63
2022/09/23 11:36:59;;;;;;;4.63;2.25;;;;;;;15.29;59.53;101491.91;5109368;28;20058;-61
2022/09/23 11:39:32;;;;;;;5.30;2.28;;;;;;;15.29;59.83;101486.50;5112096;28;20127;-62
2022/09/23 11:42:03;;;;;;;4.43;2.40;;;;;;;15.36;59.46;101489.91;4760413;27;10000483;-62
2022/09/23 11:44:38;;;;;;;2.58;1.63;;;;;;;15.37;59.36;101485.31;5120606;27;20054;-62
2022/09/23 11:47:08;;;;;;;4.35;2.20;;;;;;;15.34;59.06;101477.66;5118613;27;20395;-62
2022/09/23 11:49:41;;;;;;;3.25;1.95;;;;;;;15.39;59.42;101485.91;5117663;28;20308;-62
2022/09/23 11:52:18;;;;;;;3.08;2.10;;;;;;;15.40;59.37;101482.13;5119089;28;20134;-62
2022/09/23 11:54:52;;;;;;;5.22;2.20;;;;;;;15.46;60.16;101481.19;5120088;27;20081;-62
2022/09/23 11:57:27;;;;;;;2.80;1.65;;;;;;;15.48;59.46;101476.34;5109651;28;20330;-62
2022/09/23 12:00:13;;;;;;;4.28;2.85;;;;;;;15.54;59.81;101480.81;5116664;28;20047;-62
2022/09/23 12:02:55;;;;;;;6.57;2.60;;;;;;;15.66;60.48;101478.06;5126389;27;20065;-62
2022/09/23 12:05:39;;;;;;;5.60;2.38;;;;;;;15.62;59.69;101478.56;5119464;27;20044;-61
2022/09/23 12:08:17;;;;;;;6.30;2.42;;;;;;;15.75;59.58;101477.44;5113335;28;20054;-62
2022/09/23 12:10:52;;;;;;;6.35;2.58;;;;;;;15.73;58.77;101471.44;5110695;28;20047;-62
2022/09/23 12:13:26;;;;;;;7.63;2.10;;;;;;;15.69;59.33;101473.00;5117600;27;20047;-62
2022/09/23 12:16:11;;;;;;;5.72;2.30;;;;;;;15.67;58.89;101468.88;5112817;28;20122;-62
2022/09/23 12:18:53;;;;;;;4.78;2.17;;;;;;;15.72;60.04;101477.94;5118418;28;20143;-62
2022/09/23 12:21:46;;;;;;;4.78;1.90;;;;;;;15.70;59.21;101471.94;5112023;28;20052;-63